Time;durP1;ratioP1;P1;durP2;ratioP2;P2;SDS_P1;SDS_P2;PMS_P1;PMS_P2;Temp;Humidity;BMP_temperature;BMP_pressure;BME280_temperature;BME280_humidity;BME280_pressure;Samples;Min_cycle;Max_cycle;Signal;HPM_P1;HPM_P2
2022/06/30 00:00:59;;;;;;;5.93;3.67;;;25.20;82.20;;;;;;10119227;28;20040;-61
2022/06/30 00:05:50;;;;;;;6.20;3.80;;;25.10;82.80;;;;;;10139577;28;20036;-60
2022/06/30 00:10:40;;;;;;;6.13;4.20;;;25.00;83.20;;;;;;10136677;28;20105;-60
2022/06/30 00:15:32;;;;;;;6.25;4.00;;;24.90;83.70;;;;;;10118789;28;20435;-61
2022/06/30 00:20:23;;;;;;;6.22;3.22;;;24.90;84.00;;;;;;10133204;28;20511;-60
2022/06/30 00:25:13;;;;;;;4.30;3.63;;;24.80;84.40;;;;;;10135174;28;20094;-60
2022/06/30 00:30:04;;;;;;;4.47;3.03;;;24.60;85.10;;;;;;10128307;28;20016;-60
2022/06/30 00:34:55;;;;;;;5.05;3.70;;;24.70;85.40;;;;;;10141112;28;20123;-60
2022/06/30 00:39:46;;;;;;;7.78;3.53;;;24.70;86.20;;;;;;10119271;28;20024;-60
2022/06/30 00:44:37;;;;;;;15.48;3.40;;;24.60;86.40;;;;;;10118631;28;20028;-61
2022/06/30 00:49:28;;;;;;;4.70;3.30;;;24.50;87.20;;;;;;10135069;28;20356;-63
2022/06/30 00:54:23;;;;;;;4.10;3.05;;;24.60;87.50;;;;;;10136008;28;20017;-61
2022/06/30 00:59:15;;;;;;;;;;;24.50;88.00;;;;;;10130010;28;20017;-61
2022/06/30 01:04:07;;;;;;;3.67;3.28;;;24.30;88.80;;;;;;10117417;28;20007;-61
2022/06/30 01:08:57;;;;;;;4.65;3.22;;;24.30;88.90;;;;;;10134702;28;20041;-61
2022/06/30 01:13:49;;;;;;;3.38;3.00;;;24.30;89.70;;;;;;10108704;28;20032;-60
2022/06/30 01:18:39;;;;;;;4.97;3.67;;;24.20;90.10;;;;;;10134806;28;20081;-60
2022/06/30 01:23:30;;;;;;;6.05;3.17;;;24.20;90.50;;;;;;10134894;28;20460;-61
2022/06/30 01:28:21;;;;;;;3.92;3.53;;;24.10;90.90;;;;;;10125300;28;20566;-61
2022/06/30 01:33:12;;;;;;;3.22;2.92;;;24.00;91.10;;;;;;10116566;28;20032;-61
2022/06/30 01:38:04;;;;;;;5.40;3.05;;;23.90;91.50;;;;;;10134536;28;20056;-60
2022/06/30 01:42:54;;;;;;;5.32;3.10;;;23.90;91.90;;;;;;10125413;28;20688;-60
2022/06/30 01:47:45;;;;;;;3.88;3.30;;;23.80;92.20;;;;;;10135084;28;20340;-61
2022/06/30 01:52:36;;;;;;;3.63;3.33;;;23.70;92.50;;;;;;10134769;28;20029;-61
2022/06/30 01:57:27;;;;;;;4.32;3.25;;;23.60;93.00;;;;;;10135043;28;20096;-60
2022/06/30 02:02:17;;;;;;;4.18;3.15;;;23.60;93.20;;;;;;10133280;28;20433;-61
2022/06/30 02:07:08;;;;;;;4.75;3.60;;;23.60;93.50;;;;;;10137345;28;20035;-61
2022/06/30 02:17:28;;;;;;;5.55;3.88;;;23.50;94.20;;;;;;9970682;28;20129;-61
2022/06/30 02:22:19;;;;;;;4.45;3.10;;;23.40;94.60;;;;;;10091054;28;20128;-60
2022/06/30 02:27:10;;;;;;;5.22;3.33;;;23.30;94.90;;;;;;10130164;28;20043;-62
2022/06/30 02:32:00;;;;;;;3.75;3.35;;;23.30;95.20;;;;;;10135753;28;20418;-61
2022/06/30 02:36:51;;;;;;;5.25;3.10;;;23.20;95.50;;;;;;10137401;28;20021;-61
2022/06/30 02:41:42;;;;;;;5.60;3.92;;;23.30;95.70;;;;;;10116818;28;20029;-61
2022/06/30 02:46:32;;;;;;;3.90;3.50;;;23.20;96.00;;;;;;10132688;28;20017;-60
2022/06/30 02:51:23;;;;;;;4.45;3.58;;;23.00;96.30;;;;;;10133032;28;20052;-61
2022/06/30 02:56:14;;;;;;;3.90;3.50;;;23.00;96.70;;;;;;10133821;28;20040;-61
2022/06/30 03:01:04;;;;;;;4.00;3.60;;;23.10;96.80;;;;;;10134829;28;20119;-61
2022/06/30 03:05:55;;;;;;;5.28;4.28;;;23.20;96.90;;;;;;10132161;28;20096;-61
2022/06/30 03:10:46;;;;;;;5.35;3.78;;;23.10;97.10;;;;;;10114201;28;20283;-62
2022/06/30 03:15:37;;;;;;;4.55;3.70;;;23.00;97.30;;;;;;10138546;28;20028;-61
2022/06/30 03:20:29;;;;;;;6.63;4.38;;;23.00;97.50;;;;;;10139118;28;20048;-60
2022/06/30 03:25:19;;;;;;;4.13;3.60;;;22.90;97.50;;;;;;10140370;28;20410;-60
2022/06/30 03:30:10;;;;;;;3.47;3.17;;;22.80;97.90;;;;;;10130741;28;20020;-61
2022/06/30 03:35:01;;;;;;;5.32;4.22;;;22.80;97.90;;;;;;10140988;28;20583;-60
2022/06/30 03:39:52;;;;;;;7.22;3.92;;;22.80;98.10;;;;;;10139432;28;20086;-61
2022/06/30 03:44:43;;;;;;;5.15;3.60;;;22.90;98.10;;;;;;10139897;28;20032;-60
2022/06/30 03:49:34;;;;;;;5.97;3.78;;;22.90;98.20;;;;;;10138427;28;20402;-60
2022/06/30 03:54:24;;;;;;;4.07;3.65;;;22.60;98.50;;;;;;10137816;28;20085;-61
2022/06/30 03:59:15;;;;;;;7.03;3.97;;;22.70;98.50;;;;;;10137462;28;20506;-60
2022/06/30 04:04:06;;;;;;;4.05;3.20;;;22.80;98.50;;;;;;10138231;28;20036;-62
2022/06/30 04:08:56;;;;;;;6.15;4.43;;;23.00;98.40;;;;;;10137368;28;20059;-61
2022/06/30 04:13:47;;;;;;;6.40;4.30;;;23.00;98.40;;;;;;10137982;28;20043;-61
2022/06/30 04:18:38;;;;;;;5.50;3.50;;;23.00;98.50;;;;;;10120095;28;20099;-60
2022/06/30 04:23:28;;;;;;;5.30;3.33;;;22.90;98.70;;;;;;10137069;28;20475;-60
2022/06/30 04:28:19;;;;;;;6.20;3.85;;;23.00;98.70;;;;;;10136449;28;20017;-60
2022/06/30 04:33:10;;;;;;;4.85;3.85;;;22.80;98.70;;;;;;10137312;28;20029;-60
2022/06/30 04:38:02;;;;;;;4.80;3.42;;;22.80;98.90;;;;;;10138052;28;20025;-61
2022/06/30 04:42:52;;;;;;;5.88;3.88;;;22.90;98.70;;;;;;10137151;28;20408;-60
2022/06/30 04:47:43;;;;;;;3.92;3.22;;;22.90;98.70;;;;;;10092268;28;20029;-62
2022/06/30 04:52:34;;;;;;;6.13;4.28;;;22.90;98.70;;;;;;10118155;28;20499;-61
2022/06/30 04:57:25;;;;;;;5.40;3.92;;;22.90;98.60;;;;;;10137087;28;20186;-62
2022/06/30 05:02:16;;;;;;;4.35;3.95;;;23.00;98.50;;;;;;10134029;28;20049;-61
2022/06/30 05:07:06;;;;;;;5.10;4.25;;;23.10;98.50;;;;;;10122017;28;20028;-61
2022/06/30 05:11:57;;;;;;;6.00;4.43;;;23.20;98.50;;;;;;10136076;28;20132;-61
2022/06/30 05:16:47;;;;;;;4.50;4.05;;;23.10;98.50;;;;;;10135754;28;20036;-61
2022/06/30 05:21:38;;;;;;;5.20;3.92;;;23.00;98.70;;;;;;10130429;28;20437;-61
2022/06/30 05:26:29;;;;;;;8.20;4.35;;;22.90;98.70;;;;;;10135999;28;20384;-60
2022/06/30 05:31:19;;;;;;;6.40;5.18;;;23.10;98.60;;;;;;10108395;28;20429;-60
2022/06/30 05:36:11;;;;;;;11.27;7.22;;;23.10;98.60;;;;;;10134305;28;20580;-59
2022/06/30 05:41:01;;;;;;;7.78;5.03;;;23.10;98.60;;;;;;10134585;28;20037;-60
2022/06/30 05:45:54;;;;;;;9.40;4.57;;;23.20;98.60;;;;;;10134723;28;20028;-61
2022/06/30 05:50:45;;;;;;;6.13;4.53;;;23.50;98.30;;;;;;10133730;28;20067;-60
2022/06/30 05:55:35;;;;;;;5.30;3.97;;;23.50;98.30;;;;;;10133792;28;20526;-60
2022/06/30 06:00:29;;;;;;;4.90;3.78;;;23.50;98.20;;;;;;10115779;28;20343;-60
2022/06/30 06:05:20;;;;;;;5.60;4.25;;;23.50;98.20;;;;;;10133749;28;20518;-60
2022/06/30 06:10:13;;;;;;;7.35;4.00;;;23.50;98.10;;;;;;10104544;28;20117;-59
2022/06/30 06:15:04;;;;;;;7.20;4.32;;;23.50;98.00;;;;;;10133848;28;20028;-60
2022/06/30 06:19:55;;;;;;;4.40;4.00;;;23.60;97.90;;;;;;10132744;28;20070;-59
2022/06/30 06:24:45;;;;;;;4.28;3.88;;;23.50;98.00;;;;;;10133623;28;20074;-59
2022/06/30 06:29:36;;;;;;;4.78;3.42;;;23.50;97.90;;;;;;10123790;28;20040;-61
2022/06/30 06:34:26;;;;;;;5.78;3.72;;;23.60;97.70;;;;;;10121522;28;20078;-59
2022/06/30 06:39:17;;;;;;;4.40;3.97;;;23.60;97.60;;;;;;10134446;28;20016;-58
2022/06/30 06:44:08;;;;;;;4.30;3.45;;;23.70;97.50;;;;;;10136189;28;20029;-58
2022/06/30 06:49:01;;;;;;;3.65;3.03;;;23.70;97.30;;;;;;10138537;28;20054;-59
2022/06/30 06:53:51;;;;;;;5.93;3.13;;;23.90;97.00;;;;;;10137495;28;20252;-59
2022/06/30 06:58:43;;;;;;;5.28;3.83;;;24.00;96.90;;;;;;10136173;28;20264;-59
2022/06/30 07:03:33;;;;;;;6.43;3.90;;;24.20;96.80;;;;;;10134111;28;20380;-58
2022/06/30 07:08:24;;;;;;;5.68;3.22;;;24.30;96.70;;;;;;10140002;28;20016;-58
2022/06/30 07:13:14;;;;;;;4.97;3.55;;;24.30;96.50;;;;;;10137116;28;20017;-59
2022/06/30 07:18:05;;;;;;;3.92;3.28;;;24.50;96.40;;;;;;10143803;28;20484;-59
2022/06/30 07:22:56;;;;;;;5.65;3.55;;;24.50;96.30;;;;;;10136729;28;20044;-58
2022/06/30 07:27:46;;;;;;;3.53;2.88;;;24.70;96.10;;;;;;10130150;28;20386;-60
2022/06/30 07:32:37;;;;;;;3.30;3.00;;;24.80;95.90;;;;;;10130841;28;20044;-60
2022/06/30 07:37:28;;;;;;;7.00;3.47;;;24.90;95.70;;;;;;10130082;28;20028;-59
2022/06/30 07:42:19;;;;;;;6.85;4.18;;;25.00;95.70;;;;;;10130789;28;20036;-59
2022/06/30 07:47:10;;;;;;;4.47;3.28;;;25.10;95.60;;;;;;10134106;28;20024;-59
2022/06/30 07:52:01;;;;;;;6.68;3.72;;;25.30;95.50;;;;;;10137199;28;20133;-60
2022/06/30 07:56:51;;;;;;;4.05;3.60;;;25.20;95.40;;;;;;10131676;28;20307;-59
2022/06/30 08:01:42;;;;;;;6.32;3.58;;;25.30;95.30;;;;;;10134541;28;20029;-59
2022/06/30 08:06:33;;;;;;;5.10;3.10;;;25.40;95.20;;;;;;10140127;28;20037;-59
2022/06/30 08:11:24;;;;;;;6.05;4.15;;;25.60;95.10;;;;;;10124735;28;20624;-59
2022/06/30 08:16:15;;;;;;;4.43;4.00;;;25.70;94.90;;;;;;10121154;28;20107;-59
2022/06/30 08:21:06;;;;;;;9.43;4.40;;;25.80;94.70;;;;;;10133307;28;20422;-59
2022/06/30 08:25:57;;;;;;;6.82;4.50;;;26.20;94.50;;;;;;10135035;28;20725;-59
2022/06/30 08:30:50;;;;;;;8.63;4.20;;;26.20;94.30;;;;;;10126592;28;20063;-59
2022/06/30 08:35:40;;;;;;;4.38;3.45;;;26.30;94.30;;;;;;10137232;28;20452;-60
2022/06/30 08:45:43;;;;;;;18.35;11.55;;;26.30;94.30;;;;;;10135775;28;20086;-61
2022/06/30 08:50:34;;;;;;;9.75;6.35;;;26.50;94.20;;;;;;10136149;28;20091;-61
2022/06/30 08:55:28;;;;;;;8.18;4.47;;;26.70;94.10;;;;;;10135502;28;20119;-59
2022/06/30 09:00:18;;;;;;;6.95;4.47;;;26.60;94.20;;;;;;10118441;28;20207;-58
2022/06/30 09:05:10;;;;;;;4.88;3.53;;;26.60;94.20;;;;;;10136814;28;20208;-58
2022/06/30 09:10:05;;;;;;;4.53;3.45;;;26.80;94.20;;;;;;10135948;28;20099;-59
2022/06/30 09:14:56;;;;;;;6.97;3.72;;;26.70;94.20;;;;;;10136051;28;20036;-59
2022/06/30 09:20:00;;;;;;;4.18;3.13;;;26.70;94.20;;;;;;10135333;28;20008;-59
2022/06/30 09:24:56;;;;;;;6.43;4.30;;;26.90;94.20;;;;;;10135988;28;20115;-58
2022/06/30 09:29:46;;;;;;;6.10;3.70;;;27.00;94.10;;;;;;10135109;28;20141;-58
2022/06/30 09:34:38;;;;;;;5.05;3.40;;;27.10;94.20;;;;;;10133629;28;20033;-58
2022/06/30 09:39:29;;;;;;;5.10;3.28;;;27.40;94.00;;;;;;10132652;28;20486;-59
2022/06/30 09:44:22;;;;;;;5.32;3.70;;;27.50;93.90;;;;;;10115804;28;20037;-60
2022/06/30 09:49:37;;;;;;;7.00;3.60;;;27.50;93.90;;;;;;10137042;28;20455;-58
2022/06/30 09:54:30;;;;;;;5.05;3.60;;;27.60;93.80;;;;;;10132278;28;20052;-59
2022/06/30 09:59:24;;;;;;;4.15;3.03;;;27.80;93.60;;;;;;10130015;28;20025;-59
2022/06/30 10:04:17;;;;;;;3.28;2.42;;;28.00;93.30;;;;;;10126926;28;20514;-59
2022/06/30 10:09:08;;;;;;;4.30;2.72;;;27.90;93.00;;;;;;10128857;28;20044;-58
2022/06/30 10:13:59;;;;;;;5.13;3.05;;;27.90;92.90;;;;;;10132175;28;20117;-60
2022/06/30 10:18:50;;;;;;;3.60;3.03;;;27.90;92.70;;;;;;10132789;28;20490;-60
2022/06/30 10:23:43;;;;;;;2.50;2.30;;;28.10;92.20;;;;;;10138164;28;20032;-59
2022/06/30 10:28:33;;;;;;;2.00;1.70;;;28.30;91.70;;;;;;10120491;28;20597;-59
2022/06/30 10:33:24;;;;;;;2.45;1.70;;;28.40;91.10;;;;;;10130010;28;20079;-59
2022/06/30 10:38:25;;;;;;;1.88;1.50;;;28.40;90.50;;;;;;10129625;28;20085;-60
2022/06/30 10:43:18;;;;;;;1.58;1.40;;;28.60;89.00;;;;;;10131218;28;20097;-59
2022/06/30 10:48:09;;;;;;;2.55;1.27;;;28.70;87.30;;;;;;10129369;28;20107;-58
2022/06/30 10:53:00;;;;;;;4.43;1.80;;;29.00;85.00;;;;;;10129540;28;20501;-59
2022/06/30 10:58:02;;;;;;;2.47;1.95;;;29.00;83.80;;;;;;10132224;28;20541;-59
2022/06/30 11:02:53;;;;;;;2.28;1.50;;;28.90;82.00;;;;;;10132464;28;20068;-58
2022/06/30 11:07:44;;;;;;;2.08;1.52;;;29.00;81.10;;;;;;10132785;28;20012;-59
2022/06/30 11:12:38;;;;;;;2.25;1.92;;;29.10;79.10;;;;;;10131857;28;20076;-59
2022/06/30 11:17:31;;;;;;;2.75;2.17;;;29.10;78.00;;;;;;10131725;28;20051;-60
2022/06/30 11:22:25;;;;;;;2.83;1.83;;;29.20;76.80;;;;;;10131384;28;20247;-59
2022/06/30 11:27:22;;;;;;;3.72;2.20;;;29.20;75.90;;;;;;10129112;28;20029;-59
2022/06/30 11:32:12;;;;;;;2.47;1.90;;;29.30;74.90;;;;;;10126980;28;20085;-58
2022/06/30 11:37:04;;;;;;;2.10;1.75;;;29.40;74.30;;;;;;10138832;28;20103;-60
2022/06/30 11:42:06;;;;;;;4.55;2.38;;;29.50;73.40;;;;;;10139490;28;20033;-60
2022/06/30 11:47:05;;;;;;;1.77;1.67;;;29.70;72.40;;;;;;10139118;28;20606;-58
2022/06/30 11:51:56;;;;;;;4.13;1.80;;;29.70;71.50;;;;;;10138655;28;20055;-58
2022/06/30 11:56:48;;;;;;;3.85;2.30;;;29.70;70.60;;;;;;10139321;28;20024;-58
2022/06/30 12:01:39;;;;;;;1.90;1.67;;;29.90;69.60;;;;;;10133476;28;20510;-58
2022/06/30 12:06:29;;;;;;;1.98;1.77;;;30.30;69.00;;;;;;10130744;28;20107;-59
2022/06/30 12:11:29;;;;;;;5.28;2.00;;;30.50;68.80;;;;;;10136558;28;20124;-58
2022/06/30 12:16:20;;;;;;;10.63;6.45;;;30.50;68.90;;;;;;10134710;28;20020;-59
2022/06/30 12:21:11;;;;;;;3.35;2.03;;;31.10;68.90;;;;;;10137096;28;20029;-60
2022/06/30 12:26:02;;;;;;;3.30;2.17;;;31.50;69.00;;;;;;10138074;28;20025;-61
2022/06/30 12:30:53;;;;;;;2.40;2.00;;;32.00;69.30;;;;;;10129072;28;20457;-62
2022/06/30 12:35:44;;;;;;;3.13;2.37;;;32.20;69.80;;;;;;10136828;28;20067;-60
2022/06/30 12:40:37;;;;;;;3.83;2.42;;;32.60;69.70;;;;;;10136487;28;20387;-61
2022/06/30 12:45:54;;;;;;;3.17;2.13;;;33.00;70.10;;;;;;10135950;28;20024;-61
2022/06/30 12:50:45;;;;;;;5.63;2.00;;;33.50;68.50;;;;;;10136458;28;20048;-59
2022/06/30 12:55:54;;;;;;;3.78;2.33;;;34.20;68.20;;;;;;10135969;28;20075;-61
2022/06/30 13:00:45;;;;;;;2.20;2.00;;;35.10;65.90;;;;;;10135034;28;20037;-60
2022/06/30 13:05:36;;;;;;;;;;;35.90;65.20;;;;;;10137130;28;20044;-59
2022/06/30 13:11:04;;;;;;;3.50;2.67;;;36.80;63.40;;;;;;10136734;28;19955;-59
2022/06/30 13:15:37;;;;;;;2.10;1.70;;;38.10;62.80;;;;;;10126297;28;20025;-60
2022/06/30 13:20:27;;;;;;;3.35;2.22;;;38.80;60.10;;;;;;10134936;28;20102;-59
2022/06/30 13:25:18;;;;;;;2.85;2.00;;;39.40;58.40;;;;;;10133199;28;20032;-61
2022/06/30 13:30:09;;;;;;;3.65;2.25;;;39.90;56.50;;;;;;10133854;28;20090;-61
2022/06/30 13:35:02;;;;;;;3.35;2.10;;;40.10;55.00;;;;;;10134461;28;20024;-62
2022/06/30 13:39:52;;;;;;;2.08;1.83;;;40.40;54.40;;;;;;10134254;28;20040;-61
2022/06/30 13:44:43;;;;;;;1.98;1.88;;;40.60;52.00;;;;;;10135173;28;20044;-59
2022/06/30 13:49:33;;;;;;;3.22;1.98;;;40.40;51.20;;;;;;10134408;28;20028;-62
2022/06/30 13:54:24;;;;;;;2.40;2.20;;;40.70;50.50;;;;;;10134483;28;20028;-61
2022/06/30 13:59:15;;;;;;;2.88;1.98;;;41.00;49.30;;;;;;10133236;28;20687;-61
2022/06/30 14:04:06;;;;;;;2.45;1.92;;;40.20;49.00;;;;;;10132551;28;20036;-61
2022/06/30 14:08:56;;;;;;;2.70;1.60;;;39.60;48.80;;;;;;10132781;28;20044;-60
2022/06/30 14:13:47;;;;;;;4.93;2.10;;;38.10;49.20;;;;;;10132853;28;20700;-60
2022/06/30 14:18:38;;;;;;;2.53;1.77;;;37.00;49.40;;;;;;10113709;28;20294;-60
2022/06/30 14:23:30;;;;;;;2.45;1.70;;;36.20;49.60;;;;;;10132613;28;20040;-61
2022/06/30 14:28:20;;;;;;;2.13;1.52;;;35.40;49.40;;;;;;10108334;28;20074;-59
2022/06/30 14:33:11;;;;;;;2.00;1.58;;;34.40;49.60;;;;;;10132706;28;20486;-61
2022/06/30 14:38:02;;;;;;;4.45;2.08;;;33.90;49.50;;;;;;10131058;28;20258;-58
2022/06/30 14:42:54;;;;;;;5.68;2.00;;;33.60;49.50;;;;;;10131172;28;20092;-58
2022/06/30 14:47:45;;;;;;;3.20;1.60;;;33.40;49.60;;;;;;10131984;28;20031;-59
2022/06/30 14:52:37;;;;;;;3.45;1.73;;;33.30;49.70;;;;;;10132756;28;20054;-59
2022/06/30 14:57:28;;;;;;;3.03;1.87;;;33.40;49.60;;;;;;10135506;28;20102;-60
2022/06/30 15:02:20;;;;;;;31.25;23.20;;;33.50;49.60;;;;;;10129776;28;21212;-58
2022/06/30 15:07:10;;;;;;;7.50;4.45;;;34.30;49.10;;;;;;10131378;28;20017;-61
2022/06/30 15:12:02;;;;;;;3.40;2.30;;;35.50;48.50;;;;;;10131843;28;20249;-60
2022/06/30 15:16:53;;;;;;;2.67;1.67;;;35.80;48.30;;;;;;10131320;28;20025;-62
2022/06/30 15:26:53;;;;;;;2.92;1.48;;;35.30;48.30;;;;;;10131173;28;20688;-62
2022/06/30 15:31:56;;;;;;;2.35;1.52;;;34.80;48.40;;;;;;10123081;28;20052;-61
2022/06/30 15:36:47;;;;;;;2.53;1.73;;;34.40;48.70;;;;;;10113783;28;20044;-62
2022/06/30 15:41:38;;;;;;;3.90;2.42;;;33.80;49.00;;;;;;10131416;28;20068;-61
2022/06/30 15:46:31;;;;;;;4.68;3.63;;;33.40;49.40;;;;;;10110016;28;20024;-64
2022/06/30 15:51:22;;;;;;;2.63;2.03;;;33.00;50.00;;;;;;10114285;28;20028;-60
2022/06/30 15:56:13;;;;;;;5.13;2.22;;;32.60;50.30;;;;;;10130054;28;20029;-62
2022/06/30 16:01:04;;;;;;;3.72;1.70;;;32.30;50.80;;;;;;10130216;28;20029;-61
2022/06/30 16:05:56;;;;;;;4.47;2.45;;;32.10;51.20;;;;;;10128724;28;20095;-61
2022/06/30 16:10:47;;;;;;;3.28;2.47;;;31.90;51.70;;;;;;10130416;28;20049;-61
2022/06/30 16:15:38;;;;;;;3.50;2.40;;;31.70;52.20;;;;;;10132102;28;20077;-62
2022/06/30 16:20:28;;;;;;;4.70;2.65;;;31.40;52.40;;;;;;10129935;28;20170;-60
2022/06/30 16:25:19;;;;;;;4.38;2.35;;;31.20;52.90;;;;;;10137060;28;20517;-61
2022/06/30 16:30:14;;;;;;;4.88;1.50;;;31.10;53.30;;;;;;10135029;28;20457;-60
2022/06/30 16:35:05;;;;;;;4.25;1.70;;;30.90;53.80;;;;;;10136978;28;20436;-62
2022/06/30 16:39:56;;;;;;;7.38;2.75;;;30.70;54.40;;;;;;10139518;28;20468;-61
2022/06/30 16:44:47;;;;;;;6.72;2.60;;;29.90;56.70;;;;;;10139686;28;20037;-60
2022/06/30 16:49:38;;;;;;;4.47;2.67;;;27.20;65.90;;;;;;10137088;28;20514;-59
2022/06/30 16:54:29;;;;;;;7.82;2.97;;;25.80;70.60;;;;;;10135864;28;20401;-61
2022/06/30 16:59:19;;;;;;;7.97;4.07;;;25.20;73.90;;;;;;10133879;28;20066;-59
2022/06/30 17:04:10;;;;;;;3.60;2.50;;;24.70;76.30;;;;;;10135539;28;20033;-61
2022/06/30 17:09:01;;;;;;;6.70;3.13;;;24.90;77.50;;;;;;10136443;28;20173;-64
2022/06/30 17:13:52;;;;;;;6.50;3.15;;;25.00;78.20;;;;;;10101354;28;20028;-63
2022/06/30 17:18:46;;;;;;;4.72;3.30;;;24.50;79.70;;;;;;10136342;28;20104;-60
2022/06/30 17:23:38;;;;;;;5.93;2.22;;;23.80;85.70;;;;;;10121011;28;20040;-64
2022/06/30 17:28:31;;;;;;;5.60;2.05;;;23.60;90.30;;;;;;10114996;28;20028;-59
2022/06/30 17:33:22;;;;;;;5.47;3.47;;;23.80;90.90;;;;;;10129266;28;20372;-60
2022/06/30 17:38:13;;;;;;;5.32;2.30;;;23.70;91.90;;;;;;10109016;28;20028;-62
2022/06/30 17:43:03;;;;;;;4.53;1.90;;;23.60;92.70;;;;;;10126623;28;20075;-58
2022/06/30 17:47:54;;;;;;;11.27;5.93;;;23.50;93.20;;;;;;10131171;28;20024;-60
2022/06/30 17:52:45;;;;;;;5.57;2.45;;;23.50;93.60;;;;;;10129656;28;20032;-62
2022/06/30 17:57:36;;;;;;;4.35;1.88;;;23.30;94.10;;;;;;10134979;28;20032;-59
2022/06/30 18:02:26;;;;;;;7.15;2.65;;;22.90;94.70;;;;;;10133076;28;20261;-61
2022/06/30 18:12:26;;;;;;;2.47;1.60;;;22.00;95.20;;;;;;10125769;28;20106;-65
2022/06/30 18:17:17;;;;;;;3.97;1.45;;;22.00;95.30;;;;;;10113957;28;20438;-61
2022/06/30 18:22:08;;;;;;;7.18;1.90;;;21.90;95.20;;;;;;10131915;28;20457;-62
2022/06/30 18:26:59;;;;;;;1.92;1.33;;;22.00;95.10;;;;;;10133696;28;20485;-61
2022/06/30 18:31:49;;;;;;;4.70;1.55;;;22.10;94.70;;;;;;10125897;28;20028;-61
2022/06/30 18:36:40;;;;;;;3.97;1.30;;;21.80;94.80;;;;;;10122482;28;20028;-61
2022/06/30 18:41:32;;;;;;;4.78;1.20;;;21.60;94.90;;;;;;10133901;28;20016;-61
2022/06/30 18:46:23;;;;;;;1.48;1.27;;;21.20;95.10;;;;;;10133067;28;20612;-59
2022/06/30 18:51:14;;;;;;;1.48;1.00;;;21.20;95.00;;;;;;10130544;28;20088;-59
2022/06/30 18:56:05;;;;;;;2.78;1.02;;;21.40;94.70;;;;;;10135770;28;20095;-64
2022/06/30 19:00:56;;;;;;;3.20;0.93;;;21.40;94.60;;;;;;10131341;28;20483;-60
2022/06/30 19:05:47;;;;;;;1.55;0.85;;;21.30;94.60;;;;;;10131894;28;20032;-65
2022/06/30 19:10:38;;;;;;;2.85;0.80;;;21.40;94.70;;;;;;10132405;28;20049;-62
2022/06/30 19:15:28;;;;;;;2.53;0.82;;;21.30;94.40;;;;;;10132791;28;20024;-65
2022/06/30 19:20:19;;;;;;;3.95;1.65;;;21.30;94.30;;;;;;10131808;28;20593;-61
2022/06/30 19:25:10;;;;;;;1.15;0.80;;;21.40;94.00;;;;;;10132852;28;20474;-61
2022/06/30 19:30:00;;;;;;;4.63;1.23;;;21.60;93.70;;;;;;10130713;28;20429;-59
2022/06/30 19:34:51;;;;;;;5.10;1.60;;;21.60;93.50;;;;;;10133226;28;20042;-60
2022/06/30 19:39:42;;;;;;;1.67;1.00;;;21.40;93.30;;;;;;10135361;28;20103;-61
2022/06/30 19:44:32;;;;;;;2.72;1.50;;;21.20;93.40;;;;;;10134162;28;20044;-60
2022/06/30 19:49:23;;;;;;;2.47;1.20;;;21.00;93.40;;;;;;10133321;28;20028;-58
2022/06/30 19:54:13;;;;;;;2.75;0.50;;;21.00;93.30;;;;;;10134772;28;20033;-61
2022/06/30 19:59:04;;;;;;;1.25;0.73;;;21.00;93.10;;;;;;10138326;28;20020;-61
2022/06/30 20:14:15;;;;;;;1.00;0.43;;;20.50;93.40;;;;;;10112601;28;20033;-61
2022/06/30 20:19:08;;;;;;;0.75;0.70;;;20.20;93.40;;;;;;10138419;28;20028;-64
2022/06/30 20:23:59;;;;;;;2.92;1.33;;;20.20;93.80;;;;;;10103533;28;20536;-59
2022/06/30 20:28:50;;;;;;;1.35;0.82;;;20.30;93.50;;;;;;10128508;28;20029;-60
2022/06/30 20:33:41;;;;;;;5.53;0.90;;;20.20;93.80;;;;;;10136605;28;20438;-61
2022/06/30 20:38:32;;;;;;;15.05;6.90;;;20.50;93.60;;;;;;10131559;28;20418;-59
2022/06/30 20:43:23;;;;;;;11.35;5.20;;;20.80;93.60;;;;;;10126263;28;20036;-61
2022/06/30 20:53:23;;;;;;;3.45;1.80;;;20.40;94.20;;;;;;10127447;28;20094;-59
2022/06/30 20:58:14;;;;;;;1.90;1.48;;;20.50;94.30;;;;;;10135903;28;20544;-61
2022/06/30 21:03:04;;;;;;;1.38;1.00;;;20.70;94.20;;;;;;10134408;28;20067;-60
2022/06/30 21:07:55;;;;;;;3.63;1.17;;;20.70;94.30;;;;;;10130821;28;20063;-60
2022/06/30 21:12:45;;;;;;;2.47;0.77;;;20.70;94.40;;;;;;10133272;28;20252;-60
2022/06/30 21:17:37;;;;;;;0.93;0.70;;;20.60;94.50;;;;;;10133676;28;20036;-60
2022/06/30 21:22:27;;;;;;;1.92;0.80;;;20.40;94.80;;;;;;10130724;28;20041;-60
2022/06/30 21:27:18;;;;;;;1.23;0.68;;;20.20;95.00;;;;;;10129302;28;20047;-62
2022/06/30 21:32:10;;;;;;;1.08;0.68;;;20.00;95.30;;;;;;10130587;28;20405;-63
2022/06/30 21:37:00;;;;;;;0.93;0.60;;;20.10;95.20;;;;;;10135200;28;20036;-61
2022/06/30 21:41:51;;;;;;;1.20;1.00;;;20.20;95.10;;;;;;10129422;28;20589;-59
2022/06/30 21:46:41;;;;;;;17.48;7.35;;;20.00;95.40;;;;;;10129540;28;20035;-61
2022/06/30 21:51:38;;;;;;;3.72;1.70;;;20.30;95.20;;;;;;10110136;28;20047;-59
2022/06/30 21:56:28;;;;;;;1.75;1.00;;;20.20;95.30;;;;;;10132688;28;20043;-59
2022/06/30 22:01:19;;;;;;;3.50;0.60;;;20.00;95.60;;;;;;10133271;28;20029;-58
2022/06/30 22:06:10;;;;;;;0.88;0.57;;;19.20;96.00;;;;;;10134811;28;20024;-58
2022/06/30 22:11:00;;;;;;;1.25;0.65;;;19.00;96.60;;;;;;10133574;28;20048;-59
2022/06/30 22:15:53;;;;;;;1.52;0.63;;;18.90;96.60;;;;;;10134339;28;20021;-57
2022/06/30 22:20:43;;;;;;;1.15;0.73;;;19.00;96.80;;;;;;10133225;28;20072;-58
2022/06/30 22:25:34;;;;;;;0.60;0.47;;;19.20;96.60;;;;;;10133002;28;20474;-58
2022/06/30 22:30:26;;;;;;;0.60;0.60;;;19.00;96.90;;;;;;10126000;28;20086;-60
2022/06/30 22:35:17;;;;;;;0.70;0.52;;;19.00;97.10;;;;;;10131319;28;20139;-59
2022/06/30 22:40:08;;;;;;;1.50;0.70;;;19.30;96.90;;;;;;10132252;28;20439;-58
2022/06/30 22:44:59;;;;;;;0.70;0.70;;;19.50;97.00;;;;;;10131640;28;20043;-59
2022/06/30 22:49:49;;;;;;;0.73;0.68;;;19.60;96.90;;;;;;10131344;28;20030;-59
2022/06/30 22:54:40;;;;;;;1.58;0.55;;;19.80;96.90;;;;;;10130896;28;20583;-59
2022/06/30 22:59:31;;;;;;;0.60;0.60;;;19.70;97.20;;;;;;10130299;28;20046;-59
2022/06/30 23:04:21;;;;;;;1.60;0.50;;;19.90;97.20;;;;;;10130986;28;20134;-58
2022/06/30 23:09:12;;;;;;;0.55;0.55;;;19.90;97.40;;;;;;10130210;28;20564;-58
2022/06/30 23:14:03;;;;;;;0.82;0.60;;;19.80;97.70;;;;;;10126806;28;20144;-59
2022/06/30 23:18:53;;;;;;;2.28;1.15;;;19.70;97.90;;;;;;10129474;28;20025;-58
2022/06/30 23:23:44;;;;;;;0.73;0.55;;;19.70;97.90;;;;;;10130160;28;20045;-58
2022/06/30 23:28:35;;;;;;;1.55;0.60;;;19.70;98.10;;;;;;10121022;28;20031;-57
2022/06/30 23:33:26;;;;;;;2.03;0.80;;;19.70;98.00;;;;;;10137883;28;20032;-57
2022/06/30 23:38:16;;;;;;;0.93;0.60;;;19.90;98.00;;;;;;10138909;28;20020;-58
2022/06/30 23:43:07;;;;;;;1.85;0.80;;;19.80;97.90;;;;;;10137796;28;20082;-60
2022/06/30 23:47:57;;;;;;;2.22;0.75;;;19.70;98.00;;;;;;10137012;28;20031;-59
2022/06/30 23:52:48;;;;;;;1.33;0.52;;;19.80;98.20;;;;;;10136795;28;20556;-57
2022/06/30 23:57:39;;;;;;;1.77;0.80;;;19.80;98.00;;;;;;10136562;28;20025;-59
